Time;durP1;ratioP1;P1;durP2;ratioP2;P2;SDS_P1;SDS_P2;PMS_P1;PMS_P2;Temp;Humidity;BMP_temperature;BMP_pressure;BME280_temperature;BME280_humidity;BME280_pressure;Samples;Min_cycle;Max_cycle;Signal;HPM_P1;HPM_P2
2023/01/07 00:01:38;;;;;;;32.15;24.40;;;8.60;99.90;;;;;;4966765;28;20177;-64
2023/01/07 00:04:05;;;;;;;32.42;24.75;;;8.70;99.90;;;;;;4966007;28;20105;-62
2023/01/07 00:06:34;;;;;;;30.63;24.65;;;8.60;99.90;;;;;;4967115;28;20046;-62
2023/01/07 00:09:00;;;;;;;31.13;25.13;;;8.50;99.90;;;;;;4966617;28;20051;-63
2023/01/07 00:11:34;;;;;;;29.23;21.67;;;8.50;99.90;;;;;;4967604;28;20062;-62
2023/01/07 00:14:01;;;;;;;29.60;22.47;;;8.50;99.90;;;;;;4966410;28;20054;-63
2023/01/07 00:16:29;;;;;;;26.95;18.58;;;9.20;99.90;;;;;;4967507;28;20038;-63
2023/01/07 00:18:59;;;;;;;18.98;12.65;;;8.60;99.90;;;;;;4967476;28;20670;-63
2023/01/07 00:21:26;;;;;;;30.75;22.00;;;9.20;99.90;;;;;;4974851;28;20066;-63
2023/01/07 00:23:56;;;;;;;25.58;17.70;;;9.20;99.90;;;;;;4968689;28;20498;-62
2023/01/07 00:26:26;;;;;;;30.73;25.25;;;9.20;99.90;;;;;;4966684;28;20683;-62
2023/01/07 00:28:52;;;;;;;31.15;24.65;;;8.80;99.90;;;;;;4966874;28;20043;-62
2023/01/07 00:31:21;;;;;;;28.90;22.10;;;9.30;99.90;;;;;;4966509;28;20514;-63
2023/01/07 00:36:20;;;;;;;28.33;18.90;;;9.20;99.90;;;;;;4966041;28;20126;-63
2023/01/07 00:38:47;;;;;;;30.10;22.20;;;9.40;99.90;;;;;;4966011;28;20039;-62
2023/01/07 00:41:12;;;;;;;31.80;24.15;;;9.30;99.90;;;;;;4966669;28;20138;-62
2023/01/07 00:43:38;;;;;;;30.73;23.63;;;9.30;99.90;;;;;;4966570;28;20122;-62
2023/01/07 00:46:04;;;;;;;23.70;14.52;;;9.00;99.90;;;;;;4964102;28;20489;-63
2023/01/07 00:48:29;;;;;;;24.83;15.55;;;9.10;99.90;;;;;;4966822;28;20214;-63
2023/01/07 00:50:55;;;;;;;28.20;21.60;;;9.30;99.90;;;;;;4966718;28;20129;-62
2023/01/07 00:53:21;;;;;;;29.60;22.55;;;9.40;99.90;;;;;;4965038;28;20057;-62
2023/01/07 00:55:48;;;;;;;27.70;20.35;;;9.20;99.90;;;;;;4966237;28;20097;-62
2023/01/07 00:58:17;;;;;;;29.50;22.02;;;9.10;99.90;;;;;;4965959;28;20129;-62
2023/01/07 01:00:43;;;;;;;22.98;14.77;;;9.60;99.90;;;;;;4966059;28;20043;-62
2023/01/07 01:03:10;;;;;;;29.10;22.17;;;9.40;99.90;;;;;;4965528;28;20452;-62
2023/01/07 01:05:36;;;;;;;26.08;19.98;;;9.40;99.90;;;;;;4965969;28;20057;-63
2023/01/07 01:08:01;;;;;;;25.73;19.25;;;9.70;99.90;;;;;;4965455;28;20048;-63
2023/01/07 01:10:27;;;;;;;28.27;22.08;;;9.70;99.90;;;;;;4965794;28;20043;-62
2023/01/07 01:12:53;;;;;;;30.27;23.40;;;9.70;99.90;;;;;;4965579;28;20054;-63
2023/01/07 01:15:19;;;;;;;24.42;16.15;;;9.70;99.90;;;;;;4966210;28;20134;-62
2023/01/07 01:17:44;;;;;;;30.05;22.58;;;9.30;99.90;;;;;;4965655;28;20485;-63
2023/01/07 01:20:14;;;;;;;29.63;21.20;;;9.30;99.90;;;;;;4967662;28;20130;-62
2023/01/07 01:22:40;;;;;;;24.48;15.02;;;9.70;99.90;;;;;;4973530;28;20069;-63
2023/01/07 01:25:07;;;;;;;27.15;18.92;;;9.70;99.90;;;;;;4965017;28;20567;-63
2023/01/07 01:27:32;;;;;;;28.45;19.90;;;9.80;99.90;;;;;;4964828;28;20051;-64
2023/01/07 01:29:58;;;;;;;28.75;21.25;;;9.40;99.90;;;;;;4966272;28;20049;-62
2023/01/07 01:32:24;;;;;;;28.67;19.65;;;9.70;99.90;;;;;;4966059;28;20047;-62
2023/01/07 01:34:50;;;;;;;28.77;20.60;;;9.90;99.90;;;;;;4965733;28;20051;-62
2023/01/07 01:37:16;;;;;;;18.27;12.38;;;9.90;99.90;;;;;;4965098;28;20046;-62
2023/01/07 01:39:41;;;;;;;25.08;15.95;;;9.50;99.90;;;;;;4966036;28;20043;-62
2023/01/07 01:42:24;;;;;;;30.38;21.45;;;9.40;99.90;;;;;;4964674;28;20382;-62
2023/01/07 01:44:55;;;;;;;14.85;8.75;;;9.60;99.90;;;;;;4965936;28;20050;-63
2023/01/07 01:47:37;;;;;;;25.30;17.05;;;10.00;99.90;;;;;;4964732;28;20055;-62
2023/01/07 01:50:17;;;;;;;27.95;18.42;;;9.60;99.90;;;;;;4965474;28;20058;-62
2023/01/07 01:52:53;;;;;;;25.95;18.80;;;10.00;99.90;;;;;;4963950;28;20062;-62
2023/01/07 01:55:24;;;;;;;28.42;18.30;;;9.50;99.90;;;;;;4965678;28;20125;-63
2023/01/07 01:57:54;;;;;;;31.17;21.17;;;9.60;99.90;;;;;;4966163;28;20046;-62
2023/01/07 02:00:20;;;;;;;22.67;15.35;;;9.80;99.90;;;;;;4969761;28;20086;-62
2023/01/07 02:02:50;;;;;;;29.23;21.23;;;9.80;99.90;;;;;;4969615;28;20086;-61
2023/01/07 02:07:44;;;;;;;19.95;11.85;;;9.70;99.90;;;;;;5029112;28;20061;-63
2023/01/07 02:10:19;;;;;;;19.85;13.63;;;9.60;99.90;;;;;;5027007;28;20040;-62
2023/01/07 02:13:11;;;;;;;21.77;13.73;;;9.80;99.90;;;;;;5028284;28;20049;-62
2023/01/07 02:15:49;;;;;;;29.17;21.92;;;10.20;99.90;;;;;;5026533;28;20049;-62
2023/01/07 02:18:26;;;;;;;26.00;18.92;;;9.90;99.90;;;;;;5027777;28;20038;-62
2023/01/07 02:21:21;;;;;;;27.60;17.58;;;9.80;99.90;;;;;;5020145;28;20052;-62
2023/01/07 02:23:55;;;;;;;15.60;9.33;;;9.70;99.90;;;;;;4994617;28;20045;-61
2023/01/07 02:26:49;;;;;;;28.23;20.90;;;9.70;99.90;;;;;;5007443;28;20050;-62
2023/01/07 02:29:39;;;;;;;27.05;20.33;;;9.90;99.90;;;;;;5007483;28;20123;-63
2023/01/07 02:32:34;;;;;;;24.65;18.20;;;10.20;99.90;;;;;;5007661;28;20042;-62
2023/01/07 02:35:57;;;;;;;25.27;17.60;;;10.20;99.90;;;;;;5007187;28;20046;-63
2023/01/07 02:38:46;;;;;;;20.70;14.35;;;10.30;99.90;;;;;;4945147;29;20099;-63
2023/01/07 02:41:15;;;;;;;26.25;18.50;;;10.40;99.90;;;;;;4946056;29;20082;-63
2023/01/07 02:43:53;;;;;;;27.48;20.65;;;9.90;99.90;;;;;;4992808;28;20057;-63
2023/01/07 02:46:32;;;;;;;22.38;17.00;;;10.20;99.90;;;;;;5008015;28;20037;-62
2023/01/07 02:49:00;;;;;;;31.17;24.38;;;10.30;99.90;;;;;;5022619;28;20052;-62
2023/01/07 02:51:37;;;;;;;28.45;23.30;;;10.30;99.90;;;;;;5005831;28;20093;-62
2023/01/07 02:54:05;;;;;;;29.48;22.05;;;9.80;99.90;;;;;;5007439;28;20050;-62
2023/01/07 02:56:42;;;;;;;28.15;22.10;;;10.30;99.90;;;;;;5006569;28;20046;-63
2023/01/07 02:59:26;;;;;;;19.58;13.70;;;9.80;99.90;;;;;;5006707;28;20046;-63
2023/01/07 03:02:29;;;;;;;22.58;14.75;;;9.90;99.90;;;;;;5006751;28;20448;-62
2023/01/07 03:05:16;;;;;;;30.58;23.35;;;10.30;99.90;;;;;;5006877;28;20402;-62
2023/01/07 03:08:06;;;;;;;29.75;22.50;;;9.80;99.90;;;;;;5005705;28;20144;-62
2023/01/07 03:10:47;;;;;;;29.60;24.40;;;10.30;99.90;;;;;;5005485;28;20551;-62
2023/01/07 03:13:19;;;;;;;32.53;25.80;;;10.10;99.90;;;;;;5005484;28;20066;-62
2023/01/07 03:15:52;;;;;;;31.92;25.23;;;9.90;99.90;;;;;;5005866;28;20045;-63
2023/01/07 03:18:21;;;;;;;30.48;25.25;;;10.10;99.90;;;;;;5006898;28;20138;-62
2023/01/07 03:20:52;;;;;;;31.65;24.80;;;9.80;99.90;;;;;;5009284;28;20042;-63
2023/01/07 03:23:21;;;;;;;28.65;22.42;;;10.30;99.90;;;;;;5013266;28;20112;-62
2023/01/07 03:25:49;;;;;;;29.65;22.92;;;10.20;99.90;;;;;;5005451;28;20046;-62
2023/01/07 03:28:18;;;;;;;29.45;22.08;;;10.30;99.90;;;;;;5006481;28;20465;-61
2023/01/07 03:30:46;;;;;;;21.55;15.48;;;10.10;99.90;;;;;;5004830;28;20042;-62
2023/01/07 03:33:24;;;;;;;20.55;14.88;;;10.40;99.90;;;;;;5004702;28;20046;-61
2023/01/07 03:35:52;;;;;;;25.73;20.40;;;10.40;99.90;;;;;;5005742;28;20053;-62
2023/01/07 03:38:21;;;;;;;26.50;23.20;;;9.90;99.90;;;;;;5003823;28;20081;-62
2023/01/07 03:40:47;;;;;;;23.95;17.55;;;9.90;99.90;;;;;;5004993;28;20129;-63
2023/01/07 03:43:16;;;;;;;22.25;18.20;;;10.40;99.90;;;;;;5004470;28;20615;-63
2023/01/07 03:45:42;;;;;;;24.38;19.27;;;10.40;99.90;;;;;;5005641;28;20053;-62
2023/01/07 03:48:08;;;;;;;28.60;22.70;;;10.50;99.90;;;;;;5005073;28;20042;-63
2023/01/07 03:50:33;;;;;;;20.00;15.07;;;10.20;99.90;;;;;;5005518;28;20042;-62
2023/01/07 03:52:59;;;;;;;26.65;21.15;;;10.20;99.90;;;;;;5004859;28;20041;-62
2023/01/07 03:55:25;;;;;;;23.02;17.02;;;10.20;99.90;;;;;;5005543;28;20161;-63
2023/01/07 03:57:50;;;;;;;14.57;10.82;;;10.50;99.90;;;;;;5005382;28;20048;-63
2023/01/07 04:00:16;;;;;;;19.42;14.88;;;10.10;99.90;;;;;;5005539;28;20053;-62
2023/01/07 04:02:43;;;;;;;15.40;11.00;;;10.00;99.90;;;;;;5003036;28;20719;-63
2023/01/07 04:05:09;;;;;;;24.35;19.83;;;10.30;99.90;;;;;;5004427;28;20124;-62
2023/01/07 04:07:35;;;;;;;24.55;21.13;;;10.40;99.90;;;;;;5004615;28;20566;-63
2023/01/07 04:10:01;;;;;;;14.88;9.80;;;10.30;99.90;;;;;;5004816;28;20046;-63
2023/01/07 04:12:27;;;;;;;25.17;20.60;;;10.40;99.90;;;;;;5005633;28;20091;-63
2023/01/07 04:14:52;;;;;;;21.00;15.95;;;10.00;99.90;;;;;;5004203;28;20044;-62
2023/01/07 04:17:18;;;;;;;24.27;18.58;;;10.10;99.90;;;;;;5005975;28;20699;-62
2023/01/07 04:19:44;;;;;;;22.83;16.70;;;10.40;99.90;;;;;;5004468;28;20516;-62
2023/01/07 04:22:10;;;;;;;24.80;19.67;;;10.50;99.90;;;;;;5012768;28;20514;-62
2023/01/07 04:24:36;;;;;;;24.30;17.98;;;10.40;99.90;;;;;;5025391;28;20049;-62
2023/01/07 04:27:02;;;;;;;20.80;15.85;;;10.50;99.90;;;;;;5023924;28;20037;-62
2023/01/07 04:29:28;;;;;;;23.55;19.25;;;9.90;99.90;;;;;;5024658;28;20037;-62
2023/01/07 04:31:53;;;;;;;21.50;15.35;;;10.20;99.90;;;;;;5023729;28;20122;-63
2023/01/07 04:34:19;;;;;;;11.55;8.43;;;10.40;99.90;;;;;;5023652;28;20088;-62
2023/01/07 04:36:45;;;;;;;20.35;17.33;;;10.20;99.90;;;;;;5023224;28;20453;-62
2023/01/07 04:39:11;;;;;;;20.75;15.82;;;10.00;99.90;;;;;;5025259;28;20045;-62
2023/01/07 04:41:37;;;;;;;16.58;11.60;;;10.00;99.90;;;;;;5024645;28;20042;-62
2023/01/07 04:44:03;;;;;;;21.65;15.82;;;9.90;99.90;;;;;;5024333;28;20049;-62
2023/01/07 04:46:29;;;;;;;15.45;9.00;;;9.90;99.90;;;;;;5024145;28;20033;-62
2023/01/07 04:48:54;;;;;;;24.08;18.85;;;9.80;99.90;;;;;;5024674;28;20741;-62
2023/01/07 04:51:20;;;;;;;18.52;14.40;;;10.20;99.90;;;;;;5023366;28;20135;-63
2023/01/07 04:53:46;;;;;;;22.27;17.48;;;10.00;99.90;;;;;;5023730;28;20041;-62
2023/01/07 04:56:12;;;;;;;20.13;15.30;;;10.30;99.90;;;;;;5024755;28;20403;-63
2023/01/07 04:58:38;;;;;;;20.25;15.65;;;10.30;99.90;;;;;;5024124;28;20037;-62
2023/01/07 05:01:03;;;;;;;22.75;18.95;;;9.80;99.90;;;;;;5023636;28;20053;-62
2023/01/07 05:03:30;;;;;;;17.83;13.43;;;9.80;99.90;;;;;;5024500;28;20538;-62
2023/01/07 05:05:56;;;;;;;17.92;14.60;;;9.80;99.90;;;;;;5023795;28;20057;-63
2023/01/07 05:08:22;;;;;;;20.00;17.92;;;10.30;99.90;;;;;;5022785;28;20120;-63
2023/01/07 05:10:49;;;;;;;21.17;17.83;;;10.40;99.90;;;;;;5023110;28;20933;-63
2023/01/07 05:13:20;;;;;;;21.27;18.98;;;10.50;99.90;;;;;;5025699;28;20055;-63
2023/01/07 05:15:46;;;;;;;18.05;13.45;;;9.80;99.90;;;;;;5024594;28;20429;-64
2023/01/07 05:18:12;;;;;;;20.02;16.30;;;10.00;99.90;;;;;;5024631;28;20132;-62
2023/01/07 05:20:38;;;;;;;19.48;17.00;;;10.00;99.90;;;;;;5019423;28;20034;-63
2023/01/07 05:23:04;;;;;;;17.15;13.32;;;10.10;99.90;;;;;;5012270;28;20041;-62
2023/01/07 05:25:31;;;;;;;16.45;13.45;;;9.90;99.90;;;;;;5003701;28;20050;-62
2023/01/07 05:27:57;;;;;;;17.58;14.32;;;10.30;99.90;;;;;;5004468;28;20069;-63
2023/01/07 05:30:22;;;;;;;22.05;17.88;;;10.30;99.90;;;;;;5004273;28;20042;-62
2023/01/07 05:32:48;;;;;;;17.58;14.10;;;10.00;99.90;;;;;;5003622;28;20117;-63
2023/01/07 05:35:14;;;;;;;18.35;14.50;;;10.00;99.90;;;;;;5004216;28;20046;-62
2023/01/07 05:37:39;;;;;;;17.05;14.20;;;10.30;99.90;;;;;;5003585;28;20121;-63
2023/01/07 05:40:06;;;;;;;13.43;9.77;;;10.30;99.90;;;;;;5004089;28;20489;-62
2023/01/07 05:42:32;;;;;;;16.85;14.90;;;10.00;99.90;;;;;;5003187;28;20049;-62
2023/01/07 05:44:57;;;;;;;17.20;12.38;;;10.40;99.90;;;;;;5004237;28;20048;-63
2023/01/07 05:47:23;;;;;;;16.83;13.82;;;10.10;99.90;;;;;;5002606;28;20100;-63
2023/01/07 05:49:49;;;;;;;17.38;14.02;;;9.80;99.90;;;;;;5004080;28;20048;-62
2023/01/07 05:52:14;;;;;;;13.43;10.32;;;9.80;99.90;;;;;;5003085;28;20149;-62
2023/01/07 05:54:40;;;;;;;13.80;10.88;;;9.90;99.90;;;;;;5003658;28;20080;-62
2023/01/07 05:57:06;;;;;;;16.10;13.20;;;10.30;99.90;;;;;;5004334;28;20092;-63
2023/01/07 05:59:35;;;;;;;18.55;14.90;;;9.90;99.90;;;;;;5003810;28;20057;-62
2023/01/07 06:02:01;;;;;;;18.02;15.02;;;10.30;99.90;;;;;;5004473;28;20038;-62
2023/01/07 06:04:27;;;;;;;19.55;15.20;;;10.30;99.90;;;;;;5004287;28;20049;-63
2023/01/07 06:06:53;;;;;;;18.88;14.57;;;10.10;99.90;;;;;;5003355;28;20066;-63
2023/01/07 06:09:18;;;;;;;18.27;14.80;;;9.90;99.90;;;;;;5004533;28;20041;-63
2023/01/07 06:11:44;;;;;;;18.48;13.95;;;9.90;99.90;;;;;;5005138;28;20092;-62
2023/01/07 06:14:10;;;;;;;19.55;13.65;;;10.20;99.90;;;;;;5004207;28;20081;-62
2023/01/07 06:16:36;;;;;;;16.88;12.48;;;10.00;99.90;;;;;;5003369;28;20049;-63
2023/01/07 06:19:01;;;;;;;14.70;11.52;;;9.70;99.90;;;;;;5004349;28;20077;-63
2023/01/07 06:21:27;;;;;;;15.63;13.45;;;9.80;99.90;;;;;;5011385;28;20119;-62
2023/01/07 06:23:54;;;;;;;14.68;10.13;;;9.80;99.90;;;;;;5006206;28;20393;-63
2023/01/07 06:26:19;;;;;;;13.57;10.20;;;9.70;99.90;;;;;;5004307;28;20073;-64
2023/01/07 06:28:45;;;;;;;14.13;11.48;;;9.90;99.90;;;;;;5004296;28;20623;-63
2023/01/07 06:31:11;;;;;;;15.48;11.85;;;10.10;99.90;;;;;;5003611;28;20042;-62
2023/01/07 06:33:36;;;;;;;15.10;13.02;;;10.00;99.90;;;;;;5001998;28;20786;-63
2023/01/07 06:36:03;;;;;;;11.30;7.82;;;10.30;99.90;;;;;;5003055;28;20073;-62
2023/01/07 06:38:29;;;;;;;13.93;9.95;;;9.80;99.90;;;;;;5002946;28;20454;-63
2023/01/07 06:40:57;;;;;;;11.95;10.55;;;9.90;99.90;;;;;;5002758;28;20058;-62
2023/01/07 06:43:23;;;;;;;14.90;12.13;;;10.30;99.90;;;;;;5003856;28;20077;-63
2023/01/07 06:45:49;;;;;;;15.15;11.55;;;10.00;99.90;;;;;;5007218;28;20054;-62
2023/01/07 06:48:15;;;;;;;12.82;9.52;;;10.00;99.90;;;;;;5007281;28;20042;-63
2023/01/07 06:50:42;;;;;;;12.93;10.48;;;9.90;99.90;;;;;;5006542;28;20096;-63
2023/01/07 06:53:08;;;;;;;16.38;12.30;;;9.90;99.90;;;;;;5006248;28;20844;-62
2023/01/07 06:55:33;;;;;;;10.18;7.28;;;10.00;99.90;;;;;;5007493;28;20042;-63
2023/01/07 06:57:59;;;;;;;9.18;7.03;;;9.80;99.90;;;;;;5006166;28;20050;-62
2023/01/07 07:00:24;;;;;;;12.68;9.43;;;9.90;99.90;;;;;;5005259;28;20535;-63
2023/01/07 07:02:50;;;;;;;14.55;9.43;;;9.80;99.90;;;;;;5007535;28;20056;-63
2023/01/07 07:05:16;;;;;;;12.85;8.75;;;9.90;99.90;;;;;;5006156;28;20588;-62
2023/01/07 07:07:41;;;;;;;12.80;8.48;;;10.20;99.90;;;;;;5004745;28;20855;-62
2023/01/07 07:10:07;;;;;;;12.15;10.15;;;10.10;99.90;;;;;;5005328;28;20401;-63
2023/01/07 07:12:34;;;;;;;14.18;10.18;;;10.20;99.90;;;;;;4989294;28;20111;-63
2023/01/07 07:15:00;;;;;;;11.75;8.88;;;10.20;99.90;;;;;;5004994;28;20052;-62
2023/01/07 07:17:26;;;;;;;12.15;6.63;;;9.80;99.90;;;;;;5006982;28;20042;-63
2023/01/07 07:19:51;;;;;;;13.30;9.23;;;10.30;99.90;;;;;;5008265;28;20127;-63
2023/01/07 07:22:17;;;;;;;10.70;7.72;;;10.30;99.90;;;;;;5016807;28;20053;-63
2023/01/07 07:24:43;;;;;;;13.20;9.65;;;10.10;99.90;;;;;;5006771;28;20041;-63
2023/01/07 07:27:08;;;;;;;13.20;10.00;;;10.00;99.90;;;;;;5005771;28;20706;-63
2023/01/07 07:29:34;;;;;;;10.07;8.13;;;9.80;99.90;;;;;;5006386;28;20046;-62
2023/01/07 07:31:59;;;;;;;9.70;8.65;;;10.20;99.90;;;;;;5005372;28;20665;-63
2023/01/07 07:34:25;;;;;;;13.48;9.45;;;10.00;99.90;;;;;;5006493;28;20048;-63
2023/01/07 07:36:51;;;;;;;10.98;8.90;;;9.80;99.90;;;;;;5005974;28;20065;-62
2023/01/07 07:39:16;;;;;;;7.57;6.03;;;9.90;99.90;;;;;;5006142;28;20092;-63
2023/01/07 07:41:42;;;;;;;9.27;7.45;;;9.90;99.90;;;;;;5005531;28;20077;-63
2023/01/07 07:44:08;;;;;;;9.88;8.07;;;9.80;99.90;;;;;;5004612;28;20053;-63
2023/01/07 07:46:33;;;;;;;9.27;6.68;;;10.00;99.90;;;;;;5005633;28;20048;-63
2023/01/07 07:48:59;;;;;;;9.57;7.55;;;9.80;99.90;;;;;;5005153;28;20045;-62
2023/01/07 07:51:25;;;;;;;11.05;8.77;;;9.70;99.90;;;;;;5005085;28;20510;-63
2023/01/07 07:53:51;;;;;;;10.52;7.32;;;9.70;99.90;;;;;;5005635;28;20042;-63
2023/01/07 07:56:16;;;;;;;10.75;7.68;;;9.90;99.90;;;;;;5004725;28;20046;-63
2023/01/07 07:58:42;;;;;;;7.28;4.95;;;9.70;99.90;;;;;;5004656;28;20389;-63
2023/01/07 08:01:08;;;;;;;6.35;4.60;;;9.90;99.90;;;;;;5005503;28;20400;-63
2023/01/07 08:03:35;;;;;;;10.45;7.55;;;10.00;99.90;;;;;;5004619;28;20045;-62
2023/01/07 08:06:02;;;;;;;9.50;6.90;;;9.90;99.90;;;;;;5004563;28;20863;-63
2023/01/07 08:08:28;;;;;;;9.23;6.95;;;9.80;99.90;;;;;;5005356;28;20919;-63
2023/01/07 08:10:54;;;;;;;9.77;6.97;;;9.70;99.90;;;;;;5006049;28;20069;-63
2023/01/07 08:13:20;;;;;;;8.30;5.88;;;9.70;99.90;;;;;;5004760;28;20125;-63
2023/01/07 08:15:46;;;;;;;7.22;6.53;;;10.10;99.90;;;;;;5005115;28;20100;-63
2023/01/07 08:18:12;;;;;;;13.05;7.32;;;9.70;99.90;;;;;;5005752;28;20041;-63
2023/01/07 08:20:38;;;;;;;8.68;6.30;;;10.10;99.90;;;;;;5005336;28;20081;-62
2023/01/07 08:23:06;;;;;;;10.02;7.15;;;9.80;99.90;;;;;;5013476;28;20100;-63
2023/01/07 08:25:32;;;;;;;10.25;5.82;;;9.90;99.90;;;;;;5005499;28;20124;-63
2023/01/07 08:27:59;;;;;;;8.35;5.88;;;9.90;99.90;;;;;;5005309;28;20140;-63
2023/01/07 08:30:25;;;;;;;7.03;4.70;;;10.00;99.90;;;;;;5005384;28;20519;-62
2023/01/07 08:32:52;;;;;;;9.35;6.68;;;10.20;99.90;;;;;;5005177;28;20081;-63
2023/01/07 08:35:18;;;;;;;9.80;7.00;;;9.80;99.90;;;;;;5005502;28;20046;-62
2023/01/07 08:37:44;;;;;;;11.35;6.90;;;9.90;99.90;;;;;;5004251;28;20049;-62
2023/01/07 08:40:11;;;;;;;9.40;5.35;;;9.80;99.90;;;;;;5005384;28;20460;-62
2023/01/07 08:42:38;;;;;;;8.73;5.32;;;9.80;99.90;;;;;;5005470;28;20064;-62
2023/01/07 08:45:05;;;;;;;7.80;6.38;;;9.90;99.90;;;;;;5004589;28;20042;-63
2023/01/07 08:47:31;;;;;;;6.55;5.07;;;9.90;99.90;;;;;;5004095;28;20041;-62
2023/01/07 08:49:56;;;;;;;7.78;6.50;;;9.70;99.90;;;;;;5003997;28;20378;-62
2023/01/07 08:52:23;;;;;;;8.50;7.00;;;9.70;99.90;;;;;;5003582;28;20096;-63
2023/01/07 08:54:50;;;;;;;8.60;7.30;;;9.90;99.90;;;;;;5004071;28;20085;-63
2023/01/07 08:57:16;;;;;;;9.43;6.28;;;9.80;99.90;;;;;;5004634;28;20041;-62
2023/01/07 08:59:42;;;;;;;7.05;6.15;;;9.80;99.90;;;;;;5002871;28;20141;-62
2023/01/07 09:02:13;;;;;;;10.55;7.00;;;9.80;99.90;;;;;;5004591;28;20137;-62
2023/01/07 09:04:39;;;;;;;8.15;6.72;;;10.10;99.90;;;;;;5004236;28;20400;-62
2023/01/07 09:07:04;;;;;;;8.30;6.00;;;9.90;99.90;;;;;;5003287;28;20046;-62
2023/01/07 09:09:30;;;;;;;9.35;5.63;;;9.80;99.90;;;;;;5004154;28;20049;-63
2023/01/07 09:11:56;;;;;;;6.35;4.40;;;10.10;99.90;;;;;;5004154;28;20046;-63
2023/01/07 09:14:21;;;;;;;8.52;6.22;;;9.80;99.90;;;;;;5018876;28;20049;-62
2023/01/07 09:16:47;;;;;;;5.90;3.60;;;10.10;99.90;;;;;;5013823;28;20396;-63
2023/01/07 09:19:13;;;;;;;6.90;4.63;;;9.90;99.90;;;;;;5011060;28;20065;-64
2023/01/07 09:21:38;;;;;;;6.15;3.78;;;9.90;99.90;;;;;;5018645;28;20041;-63
2023/01/07 09:24:04;;;;;;;7.43;5.43;;;10.70;99.90;;;;;;5013703;28;20037;-62
2023/01/07 09:26:30;;;;;;;9.77;5.70;;;9.90;99.90;;;;;;5014647;28;20072;-64
2023/01/07 09:28:55;;;;;;;6.05;5.18;;;10.20;99.90;;;;;;5011972;28;20049;-62
2023/01/07 09:31:21;;;;;;;6.43;5.13;;;10.10;99.90;;;;;;5013914;28;20033;-62
2023/01/07 09:33:47;;;;;;;5.32;4.32;;;10.00;99.90;;;;;;5013887;28;20053;-63
2023/01/07 09:36:13;;;;;;;6.53;4.35;;;10.20;99.90;;;;;;5012478;28;20435;-63
2023/01/07 09:38:38;;;;;;;6.18;3.90;;;9.90;99.90;;;;;;5014233;28;20026;-63
2023/01/07 09:41:17;;;;;;;7.78;5.05;;;9.90;99.90;;;;;;5013581;28;20033;-63
2023/01/07 09:43:49;;;;;;;7.13;4.68;;;10.20;99.90;;;;;;5021107;28;20127;-63
2023/01/07 09:46:17;;;;;;;6.13;4.03;;;10.00;99.90;;;;;;5023884;28;20052;-63
2023/01/07 09:48:50;;;;;;;7.63;4.55;;;10.20;99.90;;;;;;5023583;28;20049;-62
2023/01/07 09:51:24;;;;;;;6.32;4.15;;;10.40;99.90;;;;;;5022745;28;20052;-62
2023/01/07 09:53:56;;;;;;;6.57;4.95;;;10.30;99.90;;;;;;5023691;28;20411;-63
2023/01/07 09:56:27;;;;;;;7.25;4.65;;;10.20;99.90;;;;;;5024620;28;20971;-62
2023/01/07 09:58:56;;;;;;;6.88;4.10;;;10.20;99.90;;;;;;5024147;28;20417;-62
2023/01/07 10:01:34;;;;;;;5.95;4.03;;;10.30;99.90;;;;;;5023345;28;20041;-63
2023/01/07 10:04:22;;;;;;;5.25;3.85;;;10.20;99.90;;;;;;5024098;28;20399;-62
2023/01/07 10:07:03;;;;;;;4.93;2.97;;;10.30;99.90;;;;;;5023406;28;20064;-63
2023/01/07 10:09:48;;;;;;;5.07;3.50;;;10.10;99.90;;;;;;5023300;28;20064;-63
2023/01/07 10:12:27;;;;;;;5.03;2.90;;;10.10;99.90;;;;;;5023288;28;20042;-63
2023/01/07 10:15:06;;;;;;;4.28;3.10;;;10.30;99.90;;;;;;5023620;28;20049;-63
2023/01/07 10:17:58;;;;;;;5.30;3.85;;;10.10;99.90;;;;;;5024241;28;20073;-63
2023/01/07 10:20:39;;;;;;;5.95;3.70;;;10.30;99.90;;;;;;5019732;28;20466;-63
2023/01/07 10:23:20;;;;;;;4.97;3.38;;;10.40;99.90;;;;;;5015794;28;20177;-63
2023/01/07 10:25:49;;;;;;;5.95;3.95;;;10.10;99.90;;;;;;5007948;28;20393;-63
2023/01/07 10:28:31;;;;;;;5.45;3.58;;;10.20;99.90;;;;;;5007971;28;20052;-63
2023/01/07 10:31:00;;;;;;;4.03;3.22;;;10.40;99.90;;;;;;5007769;28;20042;-63
2023/01/07 10:33:28;;;;;;;4.63;2.45;;;10.30;99.90;;;;;;5012769;28;20065;-62
2023/01/07 10:36:17;;;;;;;3.20;1.80;;;10.50;99.90;;;;;;5011702;28;20106;-63
2023/01/07 10:38:48;;;;;;;3.00;1.60;;;10.40;99.90;;;;;;5010942;28;20049;-62
2023/01/07 10:41:27;;;;;;;5.55;2.67;;;10.30;99.90;;;;;;5009657;28;20413;-63
2023/01/07 10:44:22;;;;;;;3.63;2.47;;;10.40;99.90;;;;;;5010836;28;20050;-63
2023/01/07 10:46:56;;;;;;;5.22;3.20;;;10.40;99.90;;;;;;5015329;28;20053;-63
2023/01/07 10:49:46;;;;;;;4.35;2.95;;;10.40;99.90;;;;;;5027103;28;20045;-63
2023/01/07 10:52:38;;;;;;;4.88;2.50;;;10.30;99.90;;;;;;5025878;28;20045;-62
2023/01/07 10:55:10;;;;;;;4.22;3.00;;;10.20;99.90;;;;;;5019798;28;20030;-63
2023/01/07 10:57:37;;;;;;;4.75;2.88;;;10.30;99.90;;;;;;5015427;28;20117;-63
2023/01/07 11:00:09;;;;;;;5.13;2.83;;;10.30;99.90;;;;;;5017046;28;20037;-62
2023/01/07 11:02:37;;;;;;;4.53;3.00;;;10.30;99.90;;;;;;5016467;28;20087;-63
2023/01/07 11:05:03;;;;;;;3.28;1.75;;;10.30;99.90;;;;;;5016172;28;20093;-62
2023/01/07 11:07:42;;;;;;;3.40;2.30;;;10.40;99.90;;;;;;5015822;28;20053;-63
2023/01/07 11:10:22;;;;;;;3.35;2.20;;;10.40;99.90;;;;;;5017899;28;20069;-62
2023/01/07 11:12:54;;;;;;;3.80;1.80;;;10.40;99.90;;;;;;5017568;28;20076;-63
2023/01/07 11:15:30;;;;;;;2.47;1.55;;;10.50;99.90;;;;;;5015517;28;20045;-62
2023/01/07 11:18:08;;;;;;;2.40;1.48;;;10.50;99.90;;;;;;5014314;28;20128;-63
2023/01/07 11:20:43;;;;;;;2.67;1.70;;;10.70;99.90;;;;;;5017316;28;20037;-62
2023/01/07 11:23:31;;;;;;;2.78;1.45;;;10.60;99.90;;;;;;5018228;28;20504;-63
2023/01/07 11:26:25;;;;;;;2.50;1.90;;;10.60;99.90;;;;;;5025924;28;20049;-63
2023/01/07 11:28:59;;;;;;;2.17;1.25;;;10.60;99.90;;;;;;5007072;28;20404;-63
2023/01/07 11:31:59;;;;;;;2.90;1.75;;;10.70;99.90;;;;;;5005438;28;20408;-63
2023/01/07 11:34:33;;;;;;;2.80;1.60;;;10.70;99.90;;;;;;5006110;28;20054;-63
2023/01/07 11:36:59;;;;;;;2.75;1.50;;;10.70;99.90;;;;;;5006206;28;20073;-62
2023/01/07 11:39:33;;;;;;;3.20;1.58;;;10.70;99.90;;;;;;5006699;28;20077;-62
2023/01/07 11:42:39;;;;;;;2.92;1.60;;;10.70;99.90;;;;;;5006485;28;20052;-63
2023/01/07 11:45:15;;;;;;;4.25;1.67;;;10.80;99.90;;;;;;5004365;28;20516;-62
2023/01/07 11:48:01;;;;;;;3.50;1.55;;;10.70;99.90;;;;;;5005505;28;20096;-63
2023/01/07 11:50:33;;;;;;;3.10;1.77;;;10.70;99.90;;;;;;5005782;28;20629;-62
2023/01/07 11:53:29;;;;;;;2.80;1.30;;;10.80;99.90;;;;;;5006530;28;20135;-62
2023/01/07 11:55:59;;;;;;;2.10;1.20;;;10.80;99.90;;;;;;4991333;28;20745;-63
2023/01/07 11:58:27;;;;;;;2.72;1.50;;;10.80;99.90;;;;;;5005772;28;20107;-63
2023/01/07 12:01:06;;;;;;;2.60;1.58;;;10.80;99.90;;;;;;5005632;28;20046;-63
2023/01/07 12:03:36;;;;;;;6.45;2.08;;;10.80;99.90;;;;;;4989076;28;20120;-63
2023/01/07 12:06:10;;;;;;;3.75;1.90;;;10.80;99.90;;;;;;5005122;28;20104;-63
2023/01/07 12:08:39;;;;;;;2.35;1.63;;;10.80;99.90;;;;;;5006825;28;20141;-62
2023/01/07 12:11:08;;;;;;;3.15;1.60;;;10.80;99.90;;;;;;5006432;28;20108;-63
2023/01/07 12:13:35;;;;;;;3.78;2.00;;;10.80;99.90;;;;;;5005843;28;20099;-64
2023/01/07 12:16:05;;;;;;;3.63;1.80;;;10.80;99.90;;;;;;5006153;28;20049;-63
2023/01/07 12:18:40;;;;;;;2.53;1.27;;;10.80;99.90;;;;;;5005846;28;20129;-63
2023/01/07 12:21:35;;;;;;;3.28;1.65;;;10.70;99.90;;;;;;5010572;28;20415;-63
2023/01/07 12:24:26;;;;;;;2.63;1.55;;;10.80;99.90;;;;;;5018220;28;20049;-63
2023/01/07 12:27:02;;;;;;;3.10;1.85;;;10.80;99.90;;;;;;5015810;28;20045;-62
2023/01/07 12:29:56;;;;;;;3.75;1.88;;;10.80;99.90;;;;;;5019424;28;20108;-63
2023/01/07 12:33:02;;;;;;;2.40;1.67;;;10.80;99.90;;;;;;5024128;28;20048;-63
2023/01/07 12:35:32;;;;;;;5.15;1.88;;;10.70;99.90;;;;;;4984082;28;20065;-65
2023/01/07 12:38:13;;;;;;;3.28;1.63;;;10.70;99.90;;;;;;5025074;28;20076;-64
2023/01/07 12:40:44;;;;;;;3.25;1.75;;;10.70;99.90;;;;;;5025504;28;20045;-63
2023/01/07 12:43:13;;;;;;;4.95;2.05;;;10.80;99.90;;;;;;5025076;28;20812;-62
2023/01/07 12:45:44;;;;;;;3.85;1.77;;;10.90;99.90;;;;;;5025092;28;20049;-62
2023/01/07 12:48:45;;;;;;;2.80;1.27;;;10.80;99.90;;;;;;5023338;28;20049;-63
2023/01/07 12:51:22;;;;;;;3.50;1.80;;;10.80;99.90;;;;;;5024887;28;20113;-63
2023/01/07 12:53:58;;;;;;;2.63;1.42;;;10.80;99.90;;;;;;5024585;28;20088;-63
2023/01/07 12:56:39;;;;;;;2.00;0.95;;;10.80;99.90;;;;;;5023897;28;20045;-62
2023/01/07 12:59:17;;;;;;;3.10;1.38;;;10.90;99.90;;;;;;5024731;28;20064;-64
2023/01/07 13:01:56;;;;;;;3.80;2.00;;;11.00;99.90;;;;;;5023864;28;20092;-63
2023/01/07 13:04:56;;;;;;;5.78;1.98;;;11.00;99.90;;;;;;5023806;28;20399;-64